sensor_id;sensor_type;location;lat;lon;timestamp;P1;durP1;ratioP1;P2;durP2;ratioP2
7767;SDS011;3928;42.626;23.382;2023-06-24T00:00:42;13.30;;;11.93;;
7767;SDS011;3928;42.626;23.382;2023-06-24T00:03:11;15.38;;;12.43;;
7767;SDS011;3928;42.626;23.382;2023-06-24T00:05:38;13.23;;;11.70;;
7767;SDS011;3928;42.626;23.382;2023-06-24T00:08:06;14.60;;;12.13;;
7767;SDS011;3928;42.626;23.382;2023-06-24T00:10:33;13.50;;;12.18;;
7767;SDS011;3928;42.626;23.382;2023-06-24T00:13:02;14.27;;;11.13;;
7767;SDS011;3928;42.626;23.382;2023-06-24T00:15:29;13.60;;;11.75;;
7767;SDS011;3928;42.626;23.382;2023-06-24T00:17:58;13.65;;;12.25;;
7767;SDS011;3928;42.626;23.382;2023-06-24T00:20:31;13.15;;;11.85;;
7767;SDS011;3928;42.626;23.382;2023-06-24T00:22:59;14.23;;;12.82;;
7767;SDS011;3928;42.626;23.382;2023-06-24T00:25:26;12.98;;;11.68;;
7767;SDS011;3928;42.626;23.382;2023-06-24T00:27:53;16.13;;;12.43;;
7767;SDS011;3928;42.626;23.382;2023-06-24T00:30:20;13.27;;;11.98;;
7767;SDS011;3928;42.626;23.382;2023-06-24T00:32:48;13.90;;;12.30;;
7767;SDS011;3928;42.626;23.382;2023-06-24T00:35:17;13.48;;;12.15;;
7767;SDS011;3928;42.626;23.382;2023-06-24T00:37:44;13.32;;;11.95;;
7767;SDS011;3928;42.626;23.382;2023-06-24T00:40:12;14.63;;;12.23;;
7767;SDS011;3928;42.626;23.382;2023-06-24T00:42:41;14.73;;;13.25;;
7767;SDS011;3928;42.626;23.382;2023-06-24T00:45:10;14.27;;;12.77;;
7767;SDS011;3928;42.626;23.382;2023-06-24T00:47:37;14.07;;;12.68;;
7767;SDS011;3928;42.626;23.382;2023-06-24T00:50:05;17.23;;;12.50;;
7767;SDS011;3928;42.626;23.382;2023-06-24T00:52:34;13.50;;;12.10;;
7767;SDS011;3928;42.626;23.382;2023-06-24T00:55:04;18.30;;;13.82;;
7767;SDS011;3928;42.626;23.382;2023-06-24T00:57:33;17.75;;;13.30;;
7767;SDS011;3928;42.626;23.382;2023-06-24T01:00:04;14.40;;;12.90;;
7767;SDS011;3928;42.626;23.382;2023-06-24T01:02:34;14.88;;;13.38;;
7767;SDS011;3928;42.626;23.382;2023-06-24T01:05:02;16.25;;;13.90;;
7767;SDS011;3928;42.626;23.382;2023-06-24T01:07:31;14.85;;;13.30;;
7767;SDS011;3928;42.626;23.382;2023-06-24T01:10:02;18.73;;;14.18;;
7767;SDS011;3928;42.626;23.382;2023-06-24T01:12:31;14.80;;;13.30;;
7767;SDS011;3928;42.626;23.382;2023-06-24T01:14:59;16.20;;;14.48;;
7767;SDS011;3928;42.626;23.382;2023-06-24T01:17:31;19.05;;;13.68;;
7767;SDS011;3928;42.626;23.382;2023-06-24T01:20:03;18.27;;;13.70;;
7767;SDS011;3928;42.626;23.382;2023-06-24T01:22:54;15.02;;;13.48;;
7767;SDS011;3928;42.626;23.382;2023-06-24T01:25:55;15.18;;;12.73;;
7767;SDS011;3928;42.626;23.382;2023-06-24T01:28:46;14.70;;;13.10;;
7767;SDS011;3928;42.626;23.382;2023-06-24T01:31:35;16.65;;;13.20;;
7767;SDS011;3928;42.626;23.382;2023-06-24T01:34:06;18.20;;;13.85;;
7767;SDS011;3928;42.626;23.382;2023-06-24T01:36:45;14.52;;;13.13;;
7767;SDS011;3928;42.626;23.382;2023-06-24T01:39:19;15.40;;;13.13;;
7767;SDS011;3928;42.626;23.382;2023-06-24T01:41:51;20.00;;;13.45;;
7767;SDS011;3928;42.626;23.382;2023-06-24T01:44:27;15.77;;;14.18;;
7767;SDS011;3928;42.626;23.382;2023-06-24T01:46:57;18.92;;;14.40;;
7767;SDS011;3928;42.626;23.382;2023-06-24T01:49:28;15.40;;;12.65;;
7767;SDS011;3928;42.626;23.382;2023-06-24T01:51:58;15.00;;;12.55;;
7767;SDS011;3928;42.626;23.382;2023-06-24T01:54:26;14.50;;;13.00;;
7767;SDS011;3928;42.626;23.382;2023-06-24T01:56:55;15.23;;;13.65;;
7767;SDS011;3928;42.626;23.382;2023-06-24T01:59:25;16.02;;;13.80;;
7767;SDS011;3928;42.626;23.382;2023-06-24T02:01:55;17.67;;;12.48;;
7767;SDS011;3928;42.626;23.382;2023-06-24T02:04:23;15.00;;;12.85;;
7767;SDS011;3928;42.626;23.382;2023-06-24T02:06:55;17.65;;;13.55;;
7767;SDS011;3928;42.626;23.382;2023-06-24T02:09:26;15.93;;;13.38;;
7767;SDS011;3928;42.626;23.382;2023-06-24T02:11:56;15.43;;;13.18;;
7767;SDS011;3928;42.626;23.382;2023-06-24T02:14:24;13.55;;;12.13;;
7767;SDS011;3928;42.626;23.382;2023-06-24T02:16:52;14.80;;;12.57;;
7767;SDS011;3928;42.626;23.382;2023-06-24T02:19:24;13.88;;;12.38;;
7767;SDS011;3928;42.626;23.382;2023-06-24T02:21:52;13.77;;;12.38;;
7767;SDS011;3928;42.626;23.382;2023-06-24T02:24:20;13.30;;;12.00;;
7767;SDS011;3928;42.626;23.382;2023-06-24T02:26:47;16.45;;;13.07;;
7767;SDS011;3928;42.626;23.382;2023-06-24T02:29:15;13.77;;;11.75;;
7767;SDS011;3928;42.626;23.382;2023-06-24T02:31:44;16.35;;;13.10;;
7767;SDS011;3928;42.626;23.382;2023-06-24T02:34:11;15.23;;;13.35;;
7767;SDS011;3928;42.626;23.382;2023-06-24T02:36:39;15.88;;;13.43;;
7767;SDS011;3928;42.626;23.382;2023-06-24T02:39:05;17.13;;;12.55;;
7767;SDS011;3928;42.626;23.382;2023-06-24T02:41:33;16.90;;;15.00;;
7767;SDS011;3928;42.626;23.382;2023-06-24T02:43:59;15.48;;;13.88;;
7767;SDS011;3928;42.626;23.382;2023-06-24T02:46:26;20.33;;;14.15;;
7767;SDS011;3928;42.626;23.382;2023-06-24T02:48:56;18.60;;;14.68;;
7767;SDS011;3928;42.626;23.382;2023-06-24T02:51:24;17.70;;;14.10;;
7767;SDS011;3928;42.626;23.382;2023-06-24T02:53:53;18.15;;;14.27;;
7767;SDS011;3928;42.626;23.382;2023-06-24T02:56:23;17.02;;;14.68;;
7767;SDS011;3928;42.626;23.382;2023-06-24T02:58:53;17.65;;;14.52;;
7767;SDS011;3928;42.626;23.382;2023-06-24T03:01:21;18.40;;;15.10;;
7767;SDS011;3928;42.626;23.382;2023-06-24T03:03:51;18.65;;;14.82;;
7767;SDS011;3928;42.626;23.382;2023-06-24T03:06:19;16.42;;;14.77;;
7767;SDS011;3928;42.626;23.382;2023-06-24T03:08:47;16.17;;;14.15;;
7767;SDS011;3928;42.626;23.382;2023-06-24T03:11:16;16.10;;;14.50;;
7767;SDS011;3928;42.626;23.382;2023-06-24T03:13:43;18.35;;;13.13;;
7767;SDS011;3928;42.626;23.382;2023-06-24T03:16:10;18.65;;;14.45;;
7767;SDS011;3928;42.626;23.382;2023-06-24T03:18:39;17.20;;;14.77;;
7767;SDS011;3928;42.626;23.382;2023-06-24T03:21:07;17.17;;;14.15;;
7767;SDS011;3928;42.626;23.382;2023-06-24T03:23:34;15.10;;;13.38;;
7767;SDS011;3928;42.626;23.382;2023-06-24T03:26:01;15.65;;;12.77;;
7767;SDS011;3928;42.626;23.382;2023-06-24T03:28:30;18.42;;;14.50;;
7767;SDS011;3928;42.626;23.382;2023-06-24T03:30:57;17.42;;;13.73;;
7767;SDS011;3928;42.626;23.382;2023-06-24T03:33:24;14.43;;;12.90;;
7767;SDS011;3928;42.626;23.382;2023-06-24T03:35:52;14.85;;;12.38;;
7767;SDS011;3928;42.626;23.382;2023-06-24T03:38:19;14.25;;;12.90;;
7767;SDS011;3928;42.626;23.382;2023-06-24T03:40:46;14.45;;;12.82;;
7767;SDS011;3928;42.626;23.382;2023-06-24T03:43:13;14.88;;;12.23;;
7767;SDS011;3928;42.626;23.382;2023-06-24T03:45:41;13.07;;;11.75;;
7767;SDS011;3928;42.626;23.382;2023-06-24T03:48:08;15.38;;;12.45;;
7767;SDS011;3928;42.626;23.382;2023-06-24T03:50:35;14.10;;;12.20;;
7767;SDS011;3928;42.626;23.382;2023-06-24T03:53:02;14.07;;;12.15;;
7767;SDS011;3928;42.626;23.382;2023-06-24T03:55:30;13.35;;;11.95;;
7767;SDS011;3928;42.626;23.382;2023-06-24T03:57:56;14.30;;;12.60;;
7767;SDS011;3928;42.626;23.382;2023-06-24T04:00:23;15.70;;;11.68;;
7767;SDS011;3928;42.626;23.382;2023-06-24T04:02:52;14.35;;;12.85;;
7767;SDS011;3928;42.626;23.382;2023-06-24T04:05:19;14.63;;;12.52;;
7767;SDS011;3928;42.626;23.382;2023-06-24T04:07:47;17.70;;;12.25;;
7767;SDS011;3928;42.626;23.382;2023-06-24T04:10:15;13.82;;;12.43;;
7767;SDS011;3928;42.626;23.382;2023-06-24T04:12:43;15.93;;;12.48;;
7767;SDS011;3928;42.626;23.382;2023-06-24T04:15:10;17.60;;;11.82;;
7767;SDS011;3928;42.626;23.382;2023-06-24T04:17:37;13.27;;;11.95;;
7767;SDS011;3928;42.626;23.382;2023-06-24T04:20:06;17.05;;;12.95;;
7767;SDS011;3928;42.626;23.382;2023-06-24T04:22:34;17.08;;;13.93;;
7767;SDS011;3928;42.626;23.382;2023-06-24T04:25:02;13.73;;;12.07;;
7767;SDS011;3928;42.626;23.382;2023-06-24T04:27:31;13.70;;;12.05;;
7767;SDS011;3928;42.626;23.382;2023-06-24T04:29:58;15.25;;;12.65;;
7767;SDS011;3928;42.626;23.382;2023-06-24T04:32:24;14.07;;;12.68;;
7767;SDS011;3928;42.626;23.382;2023-06-24T04:34:51;14.25;;;12.80;;
7767;SDS011;3928;42.626;23.382;2023-06-24T04:37:19;14.65;;;13.25;;
7767;SDS011;3928;42.626;23.382;2023-06-24T04:39:46;13.57;;;12.18;;
7767;SDS011;3928;42.626;23.382;2023-06-24T04:42:14;81.47;;;62.90;;
7767;SDS011;3928;42.626;23.382;2023-06-24T04:44:41;114.65;;;82.47;;
7767;SDS011;3928;42.626;23.382;2023-06-24T04:47:07;41.55;;;34.83;;
7767;SDS011;3928;42.626;23.382;2023-06-24T04:49:34;18.30;;;16.35;;
7767;SDS011;3928;42.626;23.382;2023-06-24T04:52:01;17.95;;;14.07;;
7767;SDS011;3928;42.626;23.382;2023-06-24T04:54:30;16.58;;;12.68;;
7767;SDS011;3928;42.626;23.382;2023-06-24T04:56:56;13.77;;;12.35;;
7767;SDS011;3928;42.626;23.382;2023-06-24T04:59:23;14.45;;;13.10;;
7767;SDS011;3928;42.626;23.382;2023-06-24T05:01:50;14.98;;;12.95;;
7767;SDS011;3928;42.626;23.382;2023-06-24T05:04:17;20.08;;;13.25;;
7767;SDS011;3928;42.626;23.382;2023-06-24T05:06:44;15.38;;;12.68;;
7767;SDS011;3928;42.626;23.382;2023-06-24T05:09:10;14.20;;;12.70;;
7767;SDS011;3928;42.626;23.382;2023-06-24T05:11:40;13.52;;;12.23;;
7767;SDS011;3928;42.626;23.382;2023-06-24T05:14:07;13.63;;;12.32;;
7767;SDS011;3928;42.626;23.382;2023-06-24T05:16:34;15.77;;;14.00;;
7767;SDS011;3928;42.626;23.382;2023-06-24T05:19:01;13.95;;;12.35;;
7767;SDS011;3928;42.626;23.382;2023-06-24T05:21:27;15.32;;;13.73;;
7767;SDS011;3928;42.626;23.382;2023-06-24T05:23:54;13.52;;;12.18;;
7767;SDS011;3928;42.626;23.382;2023-06-24T05:26:21;17.90;;;13.05;;
7767;SDS011;3928;42.626;23.382;2023-06-24T05:28:49;14.13;;;12.20;;
7767;SDS011;3928;42.626;23.382;2023-06-24T05:31:16;14.00;;;12.70;;
7767;SDS011;3928;42.626;23.382;2023-06-24T05:33:43;14.15;;;12.88;;
7767;SDS011;3928;42.626;23.382;2023-06-24T05:36:10;19.13;;;14.52;;
7767;SDS011;3928;42.626;23.382;2023-06-24T05:38:37;15.52;;;13.73;;
7767;SDS011;3928;42.626;23.382;2023-06-24T05:41:03;17.10;;;13.73;;
7767;SDS011;3928;42.626;23.382;2023-06-24T05:43:30;19.35;;;14.00;;
7767;SDS011;3928;42.626;23.382;2023-06-24T05:45:58;16.60;;;14.38;;
7767;SDS011;3928;42.626;23.382;2023-06-24T05:48:25;18.20;;;13.70;;
7767;SDS011;3928;42.626;23.382;2023-06-24T05:50:52;18.45;;;14.52;;
7767;SDS011;3928;42.626;23.382;2023-06-24T05:53:19;18.98;;;16.95;;
7767;SDS011;3928;42.626;23.382;2023-06-24T05:55:46;21.58;;;19.33;;
7767;SDS011;3928;42.626;23.382;2023-06-24T05:58:13;20.45;;;18.17;;
7767;SDS011;3928;42.626;23.382;2023-06-24T06:00:40;19.75;;;14.27;;
7767;SDS011;3928;42.626;23.382;2023-06-24T06:03:08;15.18;;;13.88;;
7767;SDS011;3928;42.626;23.382;2023-06-24T06:05:35;14.75;;;13.23;;
7767;SDS011;3928;42.626;23.382;2023-06-24T06:08:02;15.00;;;13.40;;
7767;SDS011;3928;42.626;23.382;2023-06-24T06:10:29;18.75;;;14.50;;
7767;SDS011;3928;42.626;23.382;2023-06-24T06:12:56;23.80;;;17.52;;
7767;SDS011;3928;42.626;23.382;2023-06-24T06:15:23;22.95;;;16.95;;
7767;SDS011;3928;42.626;23.382;2023-06-24T06:17:50;23.98;;;16.13;;
7767;SDS011;3928;42.626;23.382;2023-06-24T06:20:19;24.95;;;16.10;;
7767;SDS011;3928;42.626;23.382;2023-06-24T06:22:46;22.65;;;16.02;;
7767;SDS011;3928;42.626;23.382;2023-06-24T06:25:13;22.52;;;15.35;;
7767;SDS011;3928;42.626;23.382;2023-06-24T06:27:40;22.13;;;14.85;;
7767;SDS011;3928;42.626;23.382;2023-06-24T06:30:07;28.08;;;16.58;;
7767;SDS011;3928;42.626;23.382;2023-06-24T06:32:34;19.25;;;15.18;;
7767;SDS011;3928;42.626;23.382;2023-06-24T06:35:01;19.42;;;15.20;;
7767;SDS011;3928;42.626;23.382;2023-06-24T06:37:29;18.85;;;14.43;;
7767;SDS011;3928;42.626;23.382;2023-06-24T06:39:56;20.33;;;15.48;;
7767;SDS011;3928;42.626;23.382;2023-06-24T06:42:23;24.80;;;17.05;;
7767;SDS011;3928;42.626;23.382;2023-06-24T06:44:50;22.15;;;16.95;;
7767;SDS011;3928;42.626;23.382;2023-06-24T06:47:17;18.27;;;14.95;;
7767;SDS011;3928;42.626;23.382;2023-06-24T06:49:43;28.40;;;15.40;;
7767;SDS011;3928;42.626;23.382;2023-06-24T06:52:11;21.70;;;15.07;;
7767;SDS011;3928;42.626;23.382;2023-06-24T06:54:39;45.42;;;22.30;;
7767;SDS011;3928;42.626;23.382;2023-06-24T06:57:06;34.70;;;17.88;;
7767;SDS011;3928;42.626;23.382;2023-06-24T06:59:32;17.60;;;14.80;;
7767;SDS011;3928;42.626;23.382;2023-06-24T07:01:59;20.85;;;14.32;;
7767;SDS011;3928;42.626;23.382;2023-06-24T07:04:26;40.67;;;19.70;;
7767;SDS011;3928;42.626;23.382;2023-06-24T07:06:57;26.27;;;16.90;;
7767;SDS011;3928;42.626;23.382;2023-06-24T07:09:24;22.33;;;15.50;;
7767;SDS011;3928;42.626;23.382;2023-06-24T07:11:52;30.83;;;15.07;;
7767;SDS011;3928;42.626;23.382;2023-06-24T07:14:19;28.73;;;17.25;;
7767;SDS011;3928;42.626;23.382;2023-06-24T07:16:46;17.80;;;15.10;;
7767;SDS011;3928;42.626;23.382;2023-06-24T07:19:12;23.98;;;15.63;;
7767;SDS011;3928;42.626;23.382;2023-06-24T07:21:39;34.85;;;17.13;;
7767;SDS011;3928;42.626;23.382;2023-06-24T07:24:06;27.67;;;16.23;;
7767;SDS011;3928;42.626;23.382;2023-06-24T07:26:33;33.53;;;23.17;;
7767;SDS011;3928;42.626;23.382;2023-06-24T07:29:01;23.50;;;13.75;;
7767;SDS011;3928;42.626;23.382;2023-06-24T07:31:28;21.38;;;16.15;;
7767;SDS011;3928;42.626;23.382;2023-06-24T07:33:55;19.42;;;13.30;;
7767;SDS011;3928;42.626;23.382;2023-06-24T07:36:21;20.60;;;12.90;;
7767;SDS011;3928;42.626;23.382;2023-06-24T07:38:48;14.32;;;12.88;;
7767;SDS011;3928;42.626;23.382;2023-06-24T07:41:15;14.23;;;12.93;;
7767;SDS011;3928;42.626;23.382;2023-06-24T07:43:42;36.42;;;29.77;;
7767;SDS011;3928;42.626;23.382;2023-06-24T07:46:10;25.30;;;21.40;;
7767;SDS011;3928;42.626;23.382;2023-06-24T07:48:37;27.20;;;24.40;;
7767;SDS011;3928;42.626;23.382;2023-06-24T07:51:04;14.63;;;13.18;;
7767;SDS011;3928;42.626;23.382;2023-06-24T07:53:30;14.50;;;12.60;;
7767;SDS011;3928;42.626;23.382;2023-06-24T07:55:58;16.27;;;13.48;;
7767;SDS011;3928;42.626;23.382;2023-06-24T07:58:25;14.00;;;12.60;;
7767;SDS011;3928;42.626;23.382;2023-06-24T08:00:52;15.35;;;12.38;;
7767;SDS011;3928;42.626;23.382;2023-06-24T08:03:21;13.98;;;12.55;;
7767;SDS011;3928;42.626;23.382;2023-06-24T08:05:48;48.25;;;20.80;;
7767;SDS011;3928;42.626;23.382;2023-06-24T08:08:15;111.53;;;37.72;;
7767;SDS011;3928;42.626;23.382;2023-06-24T08:10:43;59.92;;;23.52;;
7767;SDS011;3928;42.626;23.382;2023-06-24T08:13:10;20.05;;;13.82;;
7767;SDS011;3928;42.626;23.382;2023-06-24T08:15:37;26.85;;;14.27;;
7767;SDS011;3928;42.626;23.382;2023-06-24T08:18:03;15.05;;;12.90;;
7767;SDS011;3928;42.626;23.382;2023-06-24T08:20:32;13.27;;;11.98;;
7767;SDS011;3928;42.626;23.382;2023-06-24T08:22:58;18.17;;;12.80;;
7767;SDS011;3928;42.626;23.382;2023-06-24T08:25:25;15.75;;;12.50;;
7767;SDS011;3928;42.626;23.382;2023-06-24T08:27:52;14.80;;;13.23;;
7767;SDS011;3928;42.626;23.382;2023-06-24T08:30:19;16.00;;;12.40;;
7767;SDS011;3928;42.626;23.382;2023-06-24T08:32:46;15.02;;;12.45;;
7767;SDS011;3928;42.626;23.382;2023-06-24T08:35:13;13.15;;;11.90;;
7767;SDS011;3928;42.626;23.382;2023-06-24T08:37:41;17.52;;;12.80;;
7767;SDS011;3928;42.626;23.382;2023-06-24T08:40:08;13.70;;;12.30;;
7767;SDS011;3928;42.626;23.382;2023-06-24T08:42:35;16.40;;;13.63;;
7767;SDS011;3928;42.626;23.382;2023-06-24T08:45:02;17.30;;;13.88;;
7767;SDS011;3928;42.626;23.382;2023-06-24T08:47:29;13.95;;;12.55;;
7767;SDS011;3928;42.626;23.382;2023-06-24T08:49:59;14.00;;;12.63;;
7767;SDS011;3928;42.626;23.382;2023-06-24T08:52:31;13.25;;;11.85;;
7767;SDS011;3928;42.626;23.382;2023-06-24T08:55:04;12.30;;;11.05;;
7767;SDS011;3928;42.626;23.382;2023-06-24T08:57:33;12.48;;;11.18;;
7767;SDS011;3928;42.626;23.382;2023-06-24T08:59:59;13.80;;;11.32;;
7767;SDS011;3928;42.626;23.382;2023-06-24T09:02:27;12.52;;;11.02;;
7767;SDS011;3928;42.626;23.382;2023-06-24T09:04:54;15.40;;;11.80;;
7767;SDS011;3928;42.626;23.382;2023-06-24T09:07:27;14.30;;;11.30;;
7767;SDS011;3928;42.626;23.382;2023-06-24T09:09:55;17.23;;;12.18;;
7767;SDS011;3928;42.626;23.382;2023-06-24T09:12:23;12.93;;;11.65;;
7767;SDS011;3928;42.626;23.382;2023-06-24T09:14:51;14.68;;;11.10;;
7767;SDS011;3928;42.626;23.382;2023-06-24T09:17:18;12.35;;;11.00;;
7767;SDS011;3928;42.626;23.382;2023-06-24T09:19:47;14.57;;;11.32;;
7767;SDS011;3928;42.626;23.382;2023-06-24T09:22:14;13.30;;;11.75;;
7767;SDS011;3928;42.626;23.382;2023-06-24T09:24:43;15.00;;;11.05;;
7767;SDS011;3928;42.626;23.382;2023-06-24T09:27:11;12.30;;;11.02;;
7767;SDS011;3928;42.626;23.382;2023-06-24T09:29:42;13.27;;;12.00;;
7767;SDS011;3928;42.626;23.382;2023-06-24T09:32:09;12.90;;;10.90;;
7767;SDS011;3928;42.626;23.382;2023-06-24T09:34:37;12.52;;;11.23;;
7767;SDS011;3928;42.626;23.382;2023-06-24T09:37:04;12.63;;;11.35;;
7767;SDS011;3928;42.626;23.382;2023-06-24T09:39:35;13.43;;;10.30;;
7767;SDS011;3928;42.626;23.382;2023-06-24T09:42:03;14.02;;;10.70;;
7767;SDS011;3928;42.626;23.382;2023-06-24T09:44:31;12.63;;;11.15;;
7767;SDS011;3928;42.626;23.382;2023-06-24T09:46:59;18.40;;;11.35;;
7767;SDS011;3928;42.626;23.382;2023-06-24T09:49:28;13.40;;;11.32;;
7767;SDS011;3928;42.626;23.382;2023-06-24T09:51:56;13.88;;;11.10;;
7767;SDS011;3928;42.626;23.382;2023-06-24T09:54:26;12.65;;;10.70;;
7767;SDS011;3928;42.626;23.382;2023-06-24T09:56:54;14.63;;;11.05;;
7767;SDS011;3928;42.626;23.382;2023-06-24T09:59:26;14.13;;;10.52;;
7767;SDS011;3928;42.626;23.382;2023-06-24T10:02:14;12.20;;;10.93;;
7767;SDS011;3928;42.626;23.382;2023-06-24T10:04:42;12.00;;;10.38;;
7767;SDS011;3928;42.626;23.382;2023-06-24T10:07:10;12.43;;;11.23;;
7767;SDS011;3928;42.626;23.382;2023-06-24T10:09:38;11.90;;;10.70;;
7767;SDS011;3928;42.626;23.382;2023-06-24T10:12:06;11.50;;;10.18;;
7767;SDS011;3928;42.626;23.382;2023-06-24T10:14:33;16.50;;;12.75;;
7767;SDS011;3928;42.626;23.382;2023-06-24T10:17:01;39.65;;;18.10;;
7767;SDS011;3928;42.626;23.382;2023-06-24T10:19:31;57.10;;;22.63;;
7767;SDS011;3928;42.626;23.382;2023-06-24T10:22:07;50.05;;;19.90;;
7767;SDS011;3928;42.626;23.382;2023-06-24T10:24:36;20.10;;;11.38;;
7767;SDS011;3928;42.626;23.382;2023-06-24T10:27:05;14.82;;;9.13;;
7767;SDS011;3928;42.626;23.382;2023-06-24T10:29:34;12.88;;;10.27;;
7767;SDS011;3928;42.626;23.382;2023-06-24T10:32:04;11.00;;;9.90;;
7767;SDS011;3928;42.626;23.382;2023-06-24T10:34:33;11.23;;;10.00;;
7767;SDS011;3928;42.626;23.382;2023-06-24T10:37:07;12.40;;;9.73;;
7767;SDS011;3928;42.626;23.382;2023-06-24T10:39:36;10.40;;;9.35;;
7767;SDS011;3928;42.626;23.382;2023-06-24T10:45:00;12.90;;;9.40;;
7767;SDS011;3928;42.626;23.382;2023-06-24T10:47:39;13.50;;;9.38;;
7767;SDS011;3928;42.626;23.382;2023-06-24T10:50:09;10.00;;;9.00;;
7767;SDS011;3928;42.626;23.382;2023-06-24T10:52:38;10.70;;;8.57;;
7767;SDS011;3928;42.626;23.382;2023-06-24T10:55:06;10.68;;;8.70;;
7767;SDS011;3928;42.626;23.382;2023-06-24T10:57:34;10.13;;;9.13;;
7767;SDS011;3928;42.626;23.382;2023-06-24T11:00:02;10.40;;;9.40;;
7767;SDS011;3928;42.626;23.382;2023-06-24T11:02:31;10.73;;;8.88;;
7767;SDS011;3928;42.626;23.382;2023-06-24T11:05:01;10.93;;;9.45;;
7767;SDS011;3928;42.626;23.382;2023-06-24T11:07:31;10.32;;;9.00;;
7767;SDS011;3928;42.626;23.382;2023-06-24T11:10:01;12.68;;;8.98;;
7767;SDS011;3928;42.626;23.382;2023-06-24T11:12:31;9.70;;;8.68;;
7767;SDS011;3928;42.626;23.382;2023-06-24T11:15:00;9.68;;;8.73;;
7767;SDS011;3928;42.626;23.382;2023-06-24T11:17:28;9.82;;;8.07;;
7767;SDS011;3928;42.626;23.382;2023-06-24T11:19:56;10.27;;;8.38;;
7767;SDS011;3928;42.626;23.382;2023-06-24T11:22:25;10.95;;;7.65;;
7767;SDS011;3928;42.626;23.382;2023-06-24T11:24:54;9.57;;;8.35;;
7767;SDS011;3928;42.626;23.382;2023-06-24T11:27:25;12.15;;;8.27;;
7767;SDS011;3928;42.626;23.382;2023-06-24T11:29:55;12.25;;;8.45;;
7767;SDS011;3928;42.626;23.382;2023-06-24T11:32:34;9.30;;;8.20;;
7767;SDS011;3928;42.626;23.382;2023-06-24T11:35:01;9.55;;;8.00;;
7767;SDS011;3928;42.626;23.382;2023-06-24T11:37:31;10.23;;;8.48;;
7767;SDS011;3928;42.626;23.382;2023-06-24T11:40:04;9.60;;;7.47;;
7767;SDS011;3928;42.626;23.382;2023-06-24T11:42:32;8.32;;;7.18;;
7767;SDS011;3928;42.626;23.382;2023-06-24T11:45:03;10.73;;;8.10;;
7767;SDS011;3928;42.626;23.382;2023-06-24T11:47:31;9.35;;;8.25;;
7767;SDS011;3928;42.626;23.382;2023-06-24T11:50:01;9.38;;;8.48;;
7767;SDS011;3928;42.626;23.382;2023-06-24T11:52:33;9.38;;;8.48;;
7767;SDS011;3928;42.626;23.382;2023-06-24T11:55:12;11.93;;;9.15;;
7767;SDS011;3928;42.626;23.382;2023-06-24T11:57:52;12.32;;;8.63;;
7767;SDS011;3928;42.626;23.382;2023-06-24T12:00:21;9.75;;;8.73;;
7767;SDS011;3928;42.626;23.382;2023-06-24T12:02:49;9.13;;;8.27;;
7767;SDS011;3928;42.626;23.382;2023-06-24T12:05:20;9.88;;;8.75;;
7767;SDS011;3928;42.626;23.382;2023-06-24T12:07:51;9.70;;;8.73;;
7767;SDS011;3928;42.626;23.382;2023-06-24T12:10:24;9.48;;;8.43;;
7767;SDS011;3928;42.626;23.382;2023-06-24T12:12:51;9.77;;;8.27;;
7767;SDS011;3928;42.626;23.382;2023-06-24T12:15:18;9.48;;;8.63;;
7767;SDS011;3928;42.626;23.382;2023-06-24T12:17:47;10.70;;;8.20;;
7767;SDS011;3928;42.626;23.382;2023-06-24T12:20:15;12.18;;;8.75;;
7767;SDS011;3928;42.626;23.382;2023-06-24T12:22:44;10.02;;;8.93;;
7767;SDS011;3928;42.626;23.382;2023-06-24T12:25:12;10.20;;;8.57;;
7767;SDS011;3928;42.626;23.382;2023-06-24T12:27:41;9.43;;;8.45;;
7767;SDS011;3928;42.626;23.382;2023-06-24T12:30:09;8.57;;;7.78;;
7767;SDS011;3928;42.626;23.382;2023-06-24T12:32:37;10.77;;;9.18;;
7767;SDS011;3928;42.626;23.382;2023-06-24T12:35:04;9.57;;;8.55;;
7767;SDS011;3928;42.626;23.382;2023-06-24T12:37:34;9.07;;;8.27;;
7767;SDS011;3928;42.626;23.382;2023-06-24T12:40:01;9.30;;;8.35;;
7767;SDS011;3928;42.626;23.382;2023-06-24T12:42:29;8.60;;;7.80;;
7767;SDS011;3928;42.626;23.382;2023-06-24T12:44:59;8.85;;;7.72;;
7767;SDS011;3928;42.626;23.382;2023-06-24T12:47:28;8.30;;;7.60;;
7767;SDS011;3928;42.626;23.382;2023-06-24T12:49:56;9.45;;;8.27;;
7767;SDS011;3928;42.626;23.382;2023-06-24T12:52:24;9.23;;;8.15;;
7767;SDS011;3928;42.626;23.382;2023-06-24T12:54:51;10.23;;;8.93;;
7767;SDS011;3928;42.626;23.382;2023-06-24T12:57:20;13.25;;;8.35;;
7767;SDS011;3928;42.626;23.382;2023-06-24T12:59:49;10.73;;;9.07;;
7767;SDS011;3928;42.626;23.382;2023-06-24T13:02:18;10.60;;;8.77;;
7767;SDS011;3928;42.626;23.382;2023-06-24T13:04:46;10.52;;;8.48;;
7767;SDS011;3928;42.626;23.382;2023-06-24T13:07:13;9.90;;;8.30;;
7767;SDS011;3928;42.626;23.382;2023-06-24T13:09:40;9.48;;;8.45;;
7767;SDS011;3928;42.626;23.382;2023-06-24T13:12:07;9.30;;;8.40;;
7767;SDS011;3928;42.626;23.382;2023-06-24T13:14:36;8.77;;;7.88;;
7767;SDS011;3928;42.626;23.382;2023-06-24T13:17:03;9.45;;;8.30;;
7767;SDS011;3928;42.626;23.382;2023-06-24T13:19:31;9.57;;;8.20;;
7767;SDS011;3928;42.626;23.382;2023-06-24T13:21:58;9.20;;;7.82;;
7767;SDS011;3928;42.626;23.382;2023-06-24T13:24:25;9.35;;;7.93;;
7767;SDS011;3928;42.626;23.382;2023-06-24T13:26:52;9.38;;;8.13;;
7767;SDS011;3928;42.626;23.382;2023-06-24T13:29:19;8.80;;;7.90;;
7767;SDS011;3928;42.626;23.382;2023-06-24T13:31:47;10.90;;;8.07;;
7767;SDS011;3928;42.626;23.382;2023-06-24T13:34:14;8.93;;;8.02;;
7767;SDS011;3928;42.626;23.382;2023-06-24T13:36:44;10.90;;;8.65;;
7767;SDS011;3928;42.626;23.382;2023-06-24T13:39:14;9.10;;;8.20;;
7767;SDS011;3928;42.626;23.382;2023-06-24T13:41:44;8.40;;;7.60;;
7767;SDS011;3928;42.626;23.382;2023-06-24T13:44:12;12.32;;;8.57;;
7767;SDS011;3928;42.626;23.382;2023-06-24T13:46:39;14.88;;;9.30;;
7767;SDS011;3928;42.626;23.382;2023-06-24T13:49:08;17.42;;;8.73;;
7767;SDS011;3928;42.626;23.382;2023-06-24T13:51:34;23.95;;;9.07;;
7767;SDS011;3928;42.626;23.382;2023-06-24T13:54:03;14.63;;;8.68;;
7767;SDS011;3928;42.626;23.382;2023-06-24T13:56:31;16.10;;;8.60;;
7767;SDS011;3928;42.626;23.382;2023-06-24T13:58:58;19.15;;;9.23;;
7767;SDS011;3928;42.626;23.382;2023-06-24T14:01:25;11.60;;;8.57;;
7767;SDS011;3928;42.626;23.382;2023-06-24T14:03:54;13.68;;;8.15;;
7767;SDS011;3928;42.626;23.382;2023-06-24T14:06:22;13.25;;;8.63;;
7767;SDS011;3928;42.626;23.382;2023-06-24T14:08:51;18.42;;;8.63;;
7767;SDS011;3928;42.626;23.382;2023-06-24T14:11:19;20.58;;;8.20;;
7767;SDS011;3928;42.626;23.382;2023-06-24T14:13:47;16.05;;;8.73;;
7767;SDS011;3928;42.626;23.382;2023-06-24T14:16:15;21.35;;;8.80;;
7767;SDS011;3928;42.626;23.382;2023-06-24T14:18:43;25.52;;;9.85;;
7767;SDS011;3928;42.626;23.382;2023-06-24T14:21:10;24.83;;;18.08;;
7767;SDS011;3928;42.626;23.382;2023-06-24T14:23:37;22.88;;;12.30;;
7767;SDS011;3928;42.626;23.382;2023-06-24T14:26:05;17.58;;;8.20;;
7767;SDS011;3928;42.626;23.382;2023-06-24T14:28:34;8.80;;;7.50;;
7767;SDS011;3928;42.626;23.382;2023-06-24T14:31:02;13.52;;;7.78;;
7767;SDS011;3928;42.626;23.382;2023-06-24T14:33:29;10.18;;;6.30;;
7767;SDS011;3928;42.626;23.382;2023-06-24T14:35:56;13.75;;;7.20;;
7767;SDS011;3928;42.626;23.382;2023-06-24T14:38:23;12.25;;;6.97;;
7767;SDS011;3928;42.626;23.382;2023-06-24T14:40:51;12.98;;;6.97;;
7767;SDS011;3928;42.626;23.382;2023-06-24T14:43:21;14.50;;;7.80;;
7767;SDS011;3928;42.626;23.382;2023-06-24T14:45:49;11.68;;;7.50;;
7767;SDS011;3928;42.626;23.382;2023-06-24T14:48:16;13.52;;;7.88;;
7767;SDS011;3928;42.626;23.382;2023-06-24T14:50:44;16.33;;;7.97;;